METAR Data
IDs: Format: Raw Decoded Include TAF

Data at: 1504 UTC 17 Oct 2021

Region: TOP
KATL 171452Z 34009KT 10SM CLR 14/04 A3020 RMK AO2 SLP225 T01440044 51013

KBOS 171454Z 31015G20KT 10SM FEW025 FEW050 SCT250 16/07 A2969 RMK AO2 SLP053 T01560072 51006

KBWI 171454Z 30017G25KT 10SM FEW085 16/06 A2994 RMK AO2 SLP138 T01560056 51002

KCLE 171451Z 24011KT 10SM OVC080 11/06 A3001 RMK AO2 SLP180 60005 T01060056 53008 $

KCLT 171452Z 36011KT 10SM CLR 16/03 A3015 RMK AO2 SLP205 T01610028 51011

KCVG 171452Z 27007KT 10SM CLR 12/04 A3018 RMK AO2 SLP217 T01170044 51007 $

KDCA 171452Z 31017G23KT 10SM FEW040 FEW120 16/05 A2998 RMK AO2 PK WND 28028/1409 SLP150 T01610050 51004

KDEN 171453Z 24008KT 10SM CLR 10/M06 A3022 RMK AO2 SLP206 T01001061 55002

KDFW 171453Z 22003KT 10SM FEW250 BKN300 17/07 A3035 RMK AO2 SLP272 T01720067 53015

KDTW 171453Z 27008KT 10SM FEW065 BKN080 12/06 A3002 RMK AO2 SLP167 T01220061 50006

KEWR 171451Z 32013KT 10SM SCT035 SCT055 17/07 A2983 RMK AO2 SLP101 T01670072 50001 $

KFLL 171453Z AUTO 30005KT 10SM CLR 29/23 A2997 RMK AO2 SLP149 T02940233 50009

KIAD 171452Z 31015G28KT 10SM FEW030 FEW080 16/05 A2997 RMK AO2 PK WND 33028/1443 SLP148 T01560050 58001 $

KIAH 171453Z VRB05KT 10SM BKN250 18/09 A3034 RMK AO2 SLP272 T01830089 53015

KJFK 171451Z 31016G21KT 10SM FEW035 16/07 A2983 RMK AO2 PK WND 31026/1408 SLP099 T01560072 50003

KLAS 171456Z 22004KT 10SM SCT250 13/M06 A3003 RMK AO2 SLP156 T01331056 53001

KLAX 171453Z 09003KT 10SM FEW005 FEW240 16/05 A2997 RMK AO2 SLP147 T01610050 53009 $

KLGA 171451Z 31017G21KT 10SM FEW033 SCT050 16/07 A2981 RMK AO2 SLP096 T01560067 50003

KMCO 171453Z 36008KT 10SM BKN060 23/15 A3003 RMK AO2 SLP169 T02330150 50010

KMDW 171453Z 29004KT 10SM FEW250 12/02 A3015 RMK AO2 SLP209 T01220022 51011 $

KMEM 171454Z 04003KT 10SM CLR 17/07 A3031 RMK AO2 SLP264 T01670067 53010 $

KMIA 171453Z 34005KT 10SM FEW250 30/21 A2998 RMK AO2 SLP152 T03000206 51010 $

KMSP 171453Z 19003KT 10SM CLR 09/03 A3015 RMK AO2 SLP214 T00890033 53005 $

KORD 171451Z 29005KT 10SM FEW250 12/03 A3014 RMK AO2 SLP207 T01220028 51012

KPDX 171453Z 13006KT 10SM SCT036 BKN045 BKN200 10/08 A2972 RMK AO2 SLP062 T01000078 56014

KPHL 171454Z 31014G19KT 10SM FEW036 FEW080 16/06 A2989 RMK SLP120 T01560061 53004

KPHX 171451Z 10006KT 10SM BKN200 BKN250 21/03 A2998 RMK AO2 SLP137 T02110033 53012

KPIT 171451Z 27008KT 10SM SCT070 BKN095 12/04 A3001 RMK AO2 SLP172 T01170039 51002

KSAN 171451Z 00000KT 10SM FEW250 16/04 A2999 RMK AO2 SLP154 T01560044 53007

KSEA 171453Z 18004KT 10SM FEW046 BKN110 OVC140 12/08 A2970 RMK AO2 SLP062 T01170083 56008

KSFO 171456Z 18007G16KT 10SM FEW008 BKN180 17/04 A2989 RMK AO2 SLP122 T01670039 53003

KSLC 171454Z 12009KT 10SM CLR 09/00 A3010 RMK AO2 SLP177 T00940000 56008

KSTL 171451Z 27006KT 10SM CLR 13/04 A3028 RMK AO2 SLP252 T01330044 53010 $

KTPA 171453Z 04007KT 10SM FEW020 BKN110 24/13 A3004 RMK AO2 SLP172 T02440128 50008